createdAt,value
2022-11-04T00:01:43.631Z,9.53
2022-11-04T00:04:12.338Z,9.42
2022-11-04T00:06:41.842Z,9.36
2022-11-04T00:09:10.733Z,9.37
2022-11-04T00:11:56.597Z,9.31
2022-11-04T00:14:24.747Z,9.27
2022-11-04T00:17:10.178Z,9.34
2022-11-04T00:19:52.064Z,9.33
2022-11-04T00:22:38.920Z,9.24
2022-11-04T00:25:24.833Z,9.28
2022-11-04T00:28:10.440Z,9.24
2022-11-04T00:30:38.721Z,9.19
2022-11-04T00:33:26.834Z,9.10
2022-11-04T00:35:56.048Z,9.16
2022-11-04T00:38:26.262Z,9.06
2022-11-04T00:40:54.350Z,9.08
2022-11-04T00:43:22.227Z,9.07
2022-11-04T00:45:50.098Z,9.14
2022-11-04T00:48:18.065Z,9.08
2022-11-04T00:50:45.910Z,9.08
2022-11-04T00:53:13.732Z,9.01
2022-11-04T00:55:42.947Z,9.04
2022-11-04T00:58:10.777Z,9.04
2022-11-04T01:00:39.004Z,9.03
2022-11-04T01:03:07.031Z,9.06
2022-11-04T01:05:35.106Z,9.14
2022-11-04T01:08:02.966Z,9.18
2022-11-04T01:10:30.835Z,9.18
2022-11-04T01:13:00.171Z,9.29
2022-11-04T01:15:28.005Z,9.28
2022-11-04T01:17:56.017Z,9.31
2022-11-04T01:20:23.863Z,9.39
2022-11-04T01:22:51.750Z,9.38
2022-11-04T01:25:19.735Z,9.42
2022-11-04T01:27:47.567Z,9.46
2022-11-04T01:30:16.766Z,9.52
2022-11-04T01:32:44.690Z,9.53
2022-11-04T01:35:12.517Z,9.57
2022-11-04T01:37:40.518Z,9.59
2022-11-04T01:40:08.862Z,9.53
2022-11-04T01:42:36.756Z,9.53
2022-11-04T01:45:04.784Z,9.48
2022-11-04T01:47:38.031Z,9.48
2022-11-04T01:50:08.268Z,9.52
2022-11-04T01:52:38.102Z,9.47
2022-11-04T01:55:09.119Z,9.56
2022-11-04T01:57:40.134Z,9.61
2022-11-04T02:00:09.233Z,9.58
2022-11-04T02:02:41.885Z,9.64
2022-11-04T02:05:10.503Z,9.61
2022-11-04T02:07:38.803Z,9.66
2022-11-04T02:10:07.727Z,9.70
2022-11-04T02:12:49.804Z,9.72
2022-11-04T02:15:21.327Z,9.79
2022-11-04T02:17:59.019Z,9.76
2022-11-04T02:20:30.857Z,9.78
2022-11-04T02:23:22.777Z,9.77
2022-11-04T02:26:09.396Z,9.75
2022-11-04T02:28:51.563Z,9.67
2022-11-04T02:31:26.058Z,9.56
2022-11-04T02:33:57.865Z,9.48
2022-11-04T02:36:31.803Z,9.52
2022-11-04T02:39:06.325Z,9.48
2022-11-04T02:41:38.253Z,9.47
2022-11-04T02:44:12.938Z,9.42
2022-11-04T02:46:48.149Z,9.40
2022-11-04T02:49:19.573Z,9.44
2022-11-04T02:51:50.269Z,9.48
2022-11-04T02:54:22.374Z,9.49
2022-11-04T02:56:52.106Z,9.40
2022-11-04T02:59:23.799Z,9.38
2022-11-04T03:01:54.424Z,9.41
2022-11-04T03:04:25.839Z,9.48
2022-11-04T03:06:55.649Z,9.55
2022-11-04T03:09:24.162Z,9.63
2022-11-04T03:11:55.068Z,9.60
2022-11-04T03:14:25.394Z,9.59
2022-11-04T03:16:56.821Z,9.64
2022-11-04T03:19:27.855Z,9.63
2022-11-04T03:21:56.463Z,9.68
2022-11-04T03:24:24.427Z,9.66
2022-11-04T03:26:56.623Z,9.66
2022-11-04T03:29:27.975Z,9.59
2022-11-04T03:32:03.467Z,9.41
2022-11-04T03:34:31.613Z,9.28
2022-11-04T03:36:59.917Z,9.07
2022-11-04T03:39:27.835Z,9.01
2022-11-04T03:41:57.299Z,8.99
2022-11-04T03:44:25.378Z,9.04
2022-11-04T03:46:53.936Z,8.88
2022-11-04T03:49:24.272Z,8.92
2022-11-04T03:51:52.231Z,8.81
2022-11-04T03:54:20.621Z,8.82
2022-11-04T03:56:59.098Z,8.73
2022-11-04T03:59:41.597Z,8.63
2022-11-04T04:02:13.855Z,8.63
2022-11-04T04:04:46.533Z,8.54
2022-11-04T04:07:17.425Z,8.50
2022-11-04T04:09:46.870Z,8.43
2022-11-04T04:12:17.631Z,8.43
2022-11-04T04:14:47.708Z,8.43
2022-11-04T04:17:19.645Z,8.46
2022-11-04T04:19:52.166Z,8.39
2022-11-04T04:22:23.132Z,8.42
2022-11-04T04:25:10.782Z,8.41
2022-11-04T04:27:39.136Z,8.44
2022-11-04T04:30:08.734Z,8.59
2022-11-04T04:32:39.343Z,8.43
2022-11-04T04:35:27.388Z,8.37
2022-11-04T04:38:17.415Z,8.38
2022-11-04T04:41:05.877Z,8.41
2022-11-04T04:43:51.271Z,8.39
2022-11-04T04:46:19.822Z,8.29
2022-11-04T04:48:47.661Z,8.28
2022-11-04T04:51:17.132Z,8.27
2022-11-04T04:53:44.956Z,8.24
2022-11-04T04:56:12.732Z,8.33
2022-11-04T04:58:40.725Z,8.22
2022-11-04T05:01:14.198Z,8.29
2022-11-04T05:03:45.381Z,8.24
2022-11-04T05:06:13.344Z,8.29
2022-11-04T05:08:42.547Z,8.23
2022-11-04T05:11:10.410Z,8.06
2022-11-04T05:13:38.254Z,7.94
2022-11-04T05:16:07.037Z,7.98
2022-11-04T05:18:35.219Z,8.08
2022-11-04T05:21:04.252Z,8.09
2022-11-04T05:23:32.084Z,8.00
2022-11-04T05:26:01.391Z,8.02
2022-11-04T05:28:29.607Z,8.01
2022-11-04T05:30:57.907Z,8.02
2022-11-04T05:33:25.742Z,7.94
2022-11-04T05:35:53.549Z,7.90
2022-11-04T05:38:21.383Z,7.84
2022-11-04T05:40:49.343Z,7.85
2022-11-04T05:43:18.469Z,7.81
2022-11-04T05:45:46.396Z,7.87
2022-11-04T05:48:14.687Z,7.82
2022-11-04T05:50:42.912Z,7.75
2022-11-04T05:53:11.691Z,7.76
2022-11-04T05:55:39.818Z,7.85
2022-11-04T05:58:07.814Z,7.94
2022-11-04T06:00:37.168Z,7.97
2022-11-04T06:03:05.053Z,8.07
2022-11-04T06:05:33.139Z,8.01
2022-11-04T06:08:00.984Z,8.13
2022-11-04T06:10:28.833Z,8.14
2022-11-04T06:12:57.031Z,8.20
2022-11-04T06:15:25.291Z,8.25
2022-11-04T06:17:54.653Z,8.25
2022-11-04T06:20:22.443Z,8.25
2022-11-04T06:22:50.343Z,8.31
2022-11-04T06:25:18.159Z,8.30
2022-11-04T06:27:45.989Z,8.34
2022-11-04T06:30:14.160Z,8.28
2022-11-04T06:32:41.953Z,8.20
2022-11-04T06:35:11.385Z,8.08
2022-11-04T06:37:39.526Z,8.02
2022-11-04T06:40:08.240Z,8.14
2022-11-04T06:42:36.194Z,8.15
2022-11-04T06:45:04.153Z,8.21
2022-11-04T06:47:32.036Z,8.18
2022-11-04T06:50:05.822Z,8.36
2022-11-04T06:52:41.014Z,8.36
2022-11-04T06:55:10.643Z,8.42
2022-11-04T06:57:38.593Z,8.51
2022-11-04T07:00:07.198Z,8.49
2022-11-04T07:02:36.388Z,8.54
2022-11-04T07:05:04.794Z,8.57
2022-11-04T07:07:33.232Z,8.66
2022-11-04T07:10:02.478Z,8.76
2022-11-04T07:12:30.343Z,8.79
2022-11-04T07:14:58.204Z,8.85
2022-11-04T07:17:25.994Z,8.87
2022-11-04T07:19:54.666Z,8.94
2022-11-04T07:22:23.614Z,9.03
2022-11-04T07:24:51.467Z,9.17
2022-11-04T07:27:20.603Z,9.23
2022-11-04T07:29:48.503Z,9.32
2022-11-04T07:32:16.541Z,9.38
2022-11-04T07:34:44.508Z,9.52
2022-11-04T07:37:12.279Z,9.61
2022-11-04T07:39:40.128Z,9.64
2022-11-04T07:42:08.647Z,9.62
2022-11-04T07:44:38.035Z,9.60
2022-11-04T07:47:05.977Z,9.73
2022-11-04T07:49:33.984Z,9.73
2022-11-04T07:52:01.800Z,9.73
2022-11-04T07:54:30.088Z,9.81
2022-11-04T07:56:58.821Z,9.84
2022-11-04T07:59:28.142Z,9.80
2022-11-04T08:01:57.419Z,9.92
2022-11-04T08:04:25.559Z,9.98
2022-11-04T08:06:53.468Z,10.00
2022-11-04T08:09:21.761Z,10.11
2022-11-04T08:11:51.876Z,10.24
2022-11-04T08:14:19.984Z,10.44
2022-11-04T08:16:51.175Z,10.61
2022-11-04T08:19:20.680Z,10.62
2022-11-04T08:21:48.656Z,10.68
2022-11-04T08:24:16.785Z,10.77
2022-11-04T08:26:46.260Z,11.01
2022-11-04T08:29:14.490Z,11.34
2022-11-04T08:31:42.426Z,11.64
2022-11-04T08:34:10.474Z,11.91
2022-11-04T08:36:40.777Z,12.25
2022-11-04T08:39:11.212Z,12.46
2022-11-04T08:41:41.003Z,12.59
2022-11-04T08:44:09.172Z,12.53
2022-11-04T08:46:38.705Z,12.55
2022-11-04T08:49:09.894Z,12.70
2022-11-04T08:51:41.929Z,12.78
2022-11-04T08:54:09.842Z,12.73
2022-11-04T08:56:38.619Z,13.27
2022-11-04T08:59:07.178Z,15.72
2022-11-04T09:01:36.467Z,18.73
2022-11-04T09:04:05.183Z,20.80
2022-11-04T09:06:35.144Z,19.86
2022-11-04T09:09:04.901Z,17.81
2022-11-04T09:11:33.200Z,16.39
2022-11-04T09:14:02.045Z,15.73
2022-11-04T09:16:30.417Z,14.93
2022-11-04T09:18:58.580Z,14.75
2022-11-04T09:21:26.912Z,14.29
2022-11-04T09:23:54.845Z,13.31
2022-11-04T09:26:24.641Z,13.05
2022-11-04T09:28:54.435Z,12.93
2022-11-04T09:31:22.381Z,12.55
2022-11-04T09:33:50.342Z,13.03
2022-11-04T09:36:18.163Z,13.73
2022-11-04T09:38:46.033Z,13.88
2022-11-04T09:41:35.368Z,13.59
2022-11-04T09:44:05.547Z,13.13
2022-11-04T09:46:34.321Z,13.06
2022-11-04T09:49:04.107Z,13.57
2022-11-04T09:51:53.165Z,13.93
2022-11-04T09:54:23.014Z,14.29
2022-11-04T09:56:53.454Z,14.19
2022-11-04T09:59:22.443Z,14.22
2022-11-04T10:01:54.222Z,14.08
2022-11-04T10:04:26.351Z,13.77
2022-11-04T10:07:02.868Z,13.54
2022-11-04T10:09:41.927Z,13.41
2022-11-04T10:12:16.619Z,13.46
2022-11-04T10:14:55.943Z,13.34
2022-11-04T10:17:33.245Z,13.19
2022-11-04T10:20:05.162Z,13.00
2022-11-04T10:22:33.928Z,13.07
2022-11-04T10:25:07.246Z,13.38
2022-11-04T10:27:38.655Z,13.75
2022-11-04T10:30:11.581Z,13.76
2022-11-04T10:32:43.836Z,13.99
2022-11-04T10:35:16.975Z,14.27
2022-11-04T10:37:45.985Z,14.62
2022-11-04T10:40:18.348Z,14.80
2022-11-04T10:42:47.961Z,14.96
2022-11-04T10:45:16.290Z,15.04
2022-11-04T10:47:48.527Z,15.30
2022-11-04T10:50:29.307Z,15.48
2022-11-04T10:53:11.018Z,15.68
2022-11-04T10:55:42.572Z,15.83
2022-11-04T10:58:17.077Z,16.12
2022-11-04T11:00:45.080Z,16.44
2022-11-04T11:03:24.811Z,16.36
2022-11-04T11:05:53.337Z,16.12
2022-11-04T11:08:31.881Z,16.17
2022-11-04T11:10:59.878Z,16.03
2022-11-04T11:13:35.091Z,15.62
2022-11-04T11:16:07.642Z,15.22
2022-11-04T11:18:37.127Z,14.77
2022-11-04T11:21:07.645Z,14.29
2022-11-04T11:23:37.527Z,14.00
2022-11-04T11:26:07.121Z,13.57
2022-11-04T11:28:38.985Z,13.39
2022-11-04T11:31:13.133Z,13.37
2022-11-04T11:33:42.941Z,13.45
2022-11-04T11:36:16.399Z,13.39
2022-11-04T11:38:53.301Z,13.54
2022-11-04T11:41:25.474Z,13.73
2022-11-04T11:43:56.369Z,13.88
2022-11-04T11:46:25.403Z,13.92
2022-11-04T11:48:54.229Z,13.96
2022-11-04T11:51:29.029Z,13.93
2022-11-04T11:54:10.070Z,13.94
2022-11-04T11:57:11.560Z,13.80
2022-11-04T12:02:29.727Z,13.25
2022-11-04T12:10:50.965Z,13.07
2022-11-04T12:13:25.660Z,13.07
2022-11-04T12:16:10.435Z,13.02
2022-11-04T12:18:47.423Z,12.96
2022-11-04T12:21:21.302Z,12.99
2022-11-04T12:23:54.899Z,13.07
2022-11-04T12:26:29.579Z,12.93
2022-11-04T12:29:04.532Z,12.98
2022-11-04T12:31:40.409Z,13.19
2022-11-04T12:34:12.470Z,13.30
2022-11-04T12:36:52.364Z,13.45
2022-11-04T12:39:31.196Z,13.72
2022-11-04T12:42:20.547Z,13.95
2022-11-04T12:44:54.790Z,13.97
2022-11-04T12:47:30.143Z,13.73
2022-11-04T12:50:04.542Z,13.68
2022-11-04T12:52:42.484Z,13.75
2022-11-04T12:55:22.084Z,13.79
2022-11-04T12:57:53.732Z,13.92
2022-11-04T13:00:24.780Z,14.15
2022-11-04T13:02:58.616Z,14.28
2022-11-04T13:05:37.324Z,14.33
2022-11-04T13:08:13.821Z,14.30
2022-11-04T13:10:44.751Z,14.32
2022-11-04T13:13:16.243Z,14.27
2022-11-04T13:15:46.375Z,14.13
2022-11-04T13:18:18.870Z,14.05
2022-11-04T13:20:50.958Z,13.97
2022-11-04T13:23:20.960Z,13.91
2022-11-04T13:25:49.569Z,14.02
2022-11-04T13:28:19.641Z,14.11
2022-11-04T13:30:51.534Z,14.16
2022-11-04T13:33:25.614Z,14.06
2022-11-04T13:35:58.148Z,13.93
2022-11-04T13:38:29.648Z,13.81
2022-11-04T13:41:08.892Z,13.71
2022-11-04T13:43:42.933Z,13.54
2022-11-04T13:46:19.427Z,13.55
2022-11-04T13:48:58.609Z,13.66
2022-11-04T13:51:34.952Z,13.53
2022-11-04T13:54:03.630Z,13.43
2022-11-04T13:56:34.573Z,13.32
2022-11-04T13:59:19.680Z,13.20
2022-11-04T14:01:47.885Z,13.08
2022-11-04T14:04:26.802Z,13.01
2022-11-04T14:06:56.620Z,12.97
2022-11-04T14:09:36.536Z,12.99
2022-11-04T14:12:35.564Z,13.01
2022-11-04T14:15:14.185Z,12.98
2022-11-04T14:17:57.264Z,13.00
2022-11-04T14:20:29.709Z,13.02
2022-11-04T14:23:01.038Z,13.06
2022-11-04T14:25:31.134Z,13.03
2022-11-04T14:28:00.376Z,13.01
2022-11-04T14:30:43.336Z,12.97
2022-11-04T14:33:20.884Z,12.71
2022-11-04T14:35:50.552Z,12.60
2022-11-04T14:38:25.957Z,12.52
2022-11-04T14:41:12.765Z,12.42
2022-11-04T14:43:42.939Z,12.48
2022-11-04T14:46:12.371Z,12.47
2022-11-04T14:48:43.892Z,12.47
2022-11-04T14:51:23.005Z,12.54
2022-11-04T14:53:52.083Z,12.48
2022-11-04T14:56:23.885Z,12.40
2022-11-04T14:58:53.312Z,12.38
2022-11-04T15:01:21.862Z,12.38
2022-11-04T15:06:55.598Z,12.22
2022-11-04T15:09:25.255Z,12.09
2022-11-04T15:12:16.530Z,11.96
2022-11-04T15:14:44.566Z,11.84
2022-11-04T15:17:17.192Z,11.75
2022-11-04T15:19:49.029Z,11.65
2022-11-04T15:22:18.663Z,11.55
2022-11-04T15:24:47.303Z,11.48
2022-11-04T15:27:18.176Z,11.44
2022-11-04T15:29:54.044Z,11.39
2022-11-04T15:32:28.402Z,11.33
2022-11-04T15:34:57.839Z,11.23
2022-11-04T15:37:28.760Z,11.23
2022-11-04T15:39:58.583Z,11.22
2022-11-04T15:42:44.544Z,11.16
2022-11-04T15:45:26.632Z,11.09
2022-11-04T15:48:09.526Z,11.01
2022-11-04T15:50:37.863Z,10.99
2022-11-04T15:53:10.463Z,10.99
2022-11-04T15:55:39.090Z,10.99
2022-11-04T15:58:10.945Z,11.00
2022-11-04T16:00:39.013Z,10.99
2022-11-04T16:03:07.600Z,10.99
2022-11-04T16:05:37.735Z,11.07
2022-11-04T16:08:20.353Z,11.07
2022-11-04T16:10:49.328Z,10.96
2022-11-04T16:13:22.497Z,11.02
2022-11-04T16:15:52.274Z,10.93
2022-11-04T16:18:35.226Z,10.82
2022-11-04T16:21:05.739Z,10.76
2022-11-04T16:23:39.477Z,10.70
2022-11-04T16:26:08.039Z,10.68
2022-11-04T16:28:36.784Z,10.62
2022-11-04T16:31:06.271Z,10.57
2022-11-04T16:33:34.198Z,10.68
2022-11-04T16:36:02.300Z,10.61
2022-11-04T16:38:30.505Z,10.60
2022-11-04T16:41:00.042Z,10.52
2022-11-04T16:43:28.090Z,10.50
2022-11-04T16:45:56.594Z,10.43
2022-11-04T16:48:24.943Z,10.40
2022-11-04T16:50:54.790Z,10.37
2022-11-04T16:53:22.807Z,10.29
2022-11-04T16:55:51.372Z,10.31
2022-11-04T16:58:21.899Z,10.22
2022-11-04T17:00:49.972Z,10.20
2022-11-04T17:03:21.424Z,10.22
2022-11-04T17:05:50.021Z,10.21
2022-11-04T17:08:17.941Z,10.24
2022-11-04T17:10:45.951Z,10.21
2022-11-04T17:13:14.079Z,10.26
2022-11-04T17:15:43.533Z,10.26
2022-11-04T17:18:14.379Z,10.26
2022-11-04T17:20:43.506Z,10.21
2022-11-04T17:23:12.806Z,10.27
2022-11-04T17:25:40.752Z,10.20
2022-11-04T17:28:08.663Z,10.15
2022-11-04T17:30:36.823Z,10.11
2022-11-04T17:33:07.461Z,10.13
2022-11-04T17:35:38.224Z,10.18
2022-11-04T17:38:06.087Z,10.08
2022-11-04T17:40:54.263Z,10.03
2022-11-04T17:43:39.823Z,9.92
2022-11-04T17:46:25.124Z,9.97
2022-11-04T17:48:54.642Z,9.94
2022-11-04T17:51:22.483Z,9.86
2022-11-04T17:53:50.380Z,9.86
2022-11-04T17:56:19.107Z,9.91
2022-11-04T17:58:46.931Z,9.80
2022-11-04T18:01:15.877Z,9.68
2022-11-04T18:03:44.027Z,9.62
2022-11-04T18:06:13.327Z,9.48
2022-11-04T18:08:41.453Z,9.38
2022-11-04T18:11:10.413Z,9.34
2022-11-04T18:13:37.679Z,9.41
2022-11-04T18:16:10.486Z,9.29
2022-11-04T18:18:38.538Z,9.26
2022-11-04T18:21:07.727Z,9.29
2022-11-04T18:23:36.927Z,9.27
2022-11-04T18:26:08.995Z,9.25
2022-11-04T18:28:38.085Z,9.17
2022-11-04T18:31:07.849Z,9.08
2022-11-04T18:33:35.664Z,9.09
2022-11-04T18:36:04.281Z,9.04
2022-11-04T18:38:32.466Z,8.97
2022-11-04T18:41:01.895Z,8.91
2022-11-04T18:43:29.925Z,8.89
2022-11-04T18:45:58.033Z,8.87
2022-11-04T18:48:25.859Z,8.78
2022-11-04T18:50:54.208Z,8.72
2022-11-04T18:53:26.855Z,8.66
2022-11-04T18:55:55.167Z,8.61
2022-11-04T18:58:25.094Z,8.51
2022-11-04T19:00:53.043Z,8.42
2022-11-04T19:03:25.256Z,8.34
2022-11-04T19:05:54.052Z,8.23
2022-11-04T19:08:21.934Z,8.13
2022-11-04T19:11:00.703Z,8.10
2022-11-04T19:13:33.924Z,8.01
2022-11-04T19:16:05.090Z,8.01
2022-11-04T19:18:35.379Z,8.01
2022-11-04T19:21:06.683Z,8.12
2022-11-04T19:23:35.252Z,8.13
2022-11-04T19:26:06.649Z,8.12
2022-11-04T19:28:47.641Z,8.12
2022-11-04T19:31:18.157Z,8.07
2022-11-04T19:33:46.681Z,8.00
2022-11-04T19:36:16.027Z,7.96
2022-11-04T19:38:44.772Z,7.84
2022-11-04T19:41:29.045Z,7.82
2022-11-04T19:43:59.248Z,7.76
2022-11-04T19:46:27.458Z,7.66
2022-11-04T19:48:57.283Z,7.67
2022-11-04T19:51:30.696Z,7.58
2022-11-04T19:53:59.854Z,7.59
2022-11-04T19:56:28.337Z,7.50
2022-11-04T19:58:56.164Z,7.52
2022-11-04T20:01:25.980Z,7.50
2022-11-04T20:03:54.306Z,7.50
2022-11-04T20:06:22.437Z,7.46
2022-11-04T20:08:51.768Z,7.48
2022-11-04T20:11:20.896Z,7.61
2022-11-04T20:13:51.822Z,7.68
2022-11-04T20:16:21.418Z,7.73
2022-11-04T20:18:52.146Z,7.75
2022-11-04T20:21:22.819Z,7.79
2022-11-04T20:23:55.807Z,7.82
2022-11-04T20:26:24.623Z,7.84
2022-11-04T20:28:54.277Z,7.84
2022-11-04T20:31:23.306Z,7.83
2022-11-04T20:33:55.510Z,7.76
2022-11-04T20:36:24.745Z,7.73
2022-11-04T20:38:56.103Z,7.77
2022-11-04T20:41:24.195Z,7.83
2022-11-04T20:43:52.331Z,7.97
2022-11-04T20:46:21.808Z,8.10
2022-11-04T20:48:50.170Z,8.11
2022-11-04T20:51:21.643Z,8.16
2022-11-04T20:53:55.834Z,8.21
2022-11-04T20:56:25.302Z,8.24
2022-11-04T20:58:59.143Z,8.27
2022-11-04T21:01:29.209Z,8.25
2022-11-04T21:03:59.568Z,8.24
2022-11-04T21:06:29.717Z,8.27
2022-11-04T21:08:58.553Z,8.31
2022-11-04T21:11:31.689Z,8.29
2022-11-04T21:14:10.806Z,8.33
2022-11-04T21:16:38.715Z,8.34
2022-11-04T21:19:07.658Z,8.36
2022-11-04T21:21:36.849Z,8.33
2022-11-04T21:24:06.444Z,8.35
2022-11-04T21:26:35.547Z,8.36
2022-11-04T21:29:05.330Z,8.32
2022-11-04T21:31:37.305Z,8.30
2022-11-04T21:34:06.199Z,8.27
2022-11-04T21:36:34.146Z,8.25
2022-11-04T21:39:04.382Z,8.25
2022-11-04T21:41:37.044Z,8.22
2022-11-04T21:44:08.772Z,8.23
2022-11-04T21:46:36.892Z,8.27
2022-11-04T21:49:04.892Z,8.27
2022-11-04T21:51:33.543Z,8.27
2022-11-04T21:54:05.520Z,8.25
2022-11-04T21:56:34.032Z,8.15
2022-11-04T21:59:02.572Z,8.09
2022-11-04T22:01:31.045Z,8.21
2022-11-04T22:03:59.877Z,8.15
2022-11-04T22:06:33.680Z,8.38
2022-11-04T22:09:06.090Z,8.43
2022-11-04T22:11:36.354Z,8.59
2022-11-04T22:14:05.431Z,8.68
2022-11-04T22:16:34.218Z,8.76
2022-11-04T22:19:03.427Z,8.75
2022-11-04T22:21:31.954Z,8.76
2022-11-04T22:24:00.541Z,8.80
2022-11-04T22:26:30.568Z,8.77
2022-11-04T22:28:59.082Z,8.64
2022-11-04T22:31:28.081Z,8.59
2022-11-04T22:33:56.647Z,8.48
2022-11-04T22:36:26.024Z,8.29
2022-11-04T22:38:54.672Z,8.17
2022-11-04T22:41:23.981Z,8.08
2022-11-04T22:44:13.416Z,8.04
2022-11-04T22:46:41.511Z,7.87
2022-11-04T22:49:09.341Z,7.80
2022-11-04T22:51:38.530Z,7.74
2022-11-04T22:54:08.465Z,7.66
2022-11-04T22:56:36.796Z,7.60
2022-11-04T22:59:04.880Z,7.56
2022-11-04T23:01:34.473Z,7.45
2022-11-04T23:04:02.883Z,7.33
2022-11-04T23:06:31.054Z,7.27
2022-11-04T23:09:00.606Z,7.26
2022-11-04T23:11:46.748Z,7.24
2022-11-04T23:14:33.120Z,7.15
2022-11-04T23:17:20.336Z,7.20
2022-11-04T23:19:50.931Z,7.20
2022-11-04T23:22:36.175Z,7.09
2022-11-04T23:25:09.276Z,6.90
2022-11-04T23:27:56.091Z,6.82
2022-11-04T23:30:25.459Z,6.71
2022-11-04T23:32:56.032Z,6.71
2022-11-04T23:35:42.538Z,6.71
2022-11-04T23:38:11.502Z,6.55
2022-11-04T23:40:39.971Z,6.54
2022-11-04T23:43:08.381Z,6.41
2022-11-04T23:45:54.248Z,6.43
2022-11-04T23:48:40.859Z,6.41
2022-11-04T23:51:28.840Z,6.32
2022-11-04T23:54:14.579Z,6.25
2022-11-04T23:57:00.701Z,6.26
2022-11-04T23:59:46.135Z,6.21
